x

West Orca Bay - 8nm Nw Of Hinchinbrook Is , Ak (46060) Wave Buoy

5:50am - Wed 26th Nov 2014 All times are AKST. -9 hours from GMT.

  • Sig Wave height 1.0ft
  • Swell Direction
  • Peak Period 9s
  • Average Period 4s
  • Wind
    18mph, 22mph gusts
  • Sea Temp 46°f
  • Air Temp 40°f
  • Sea Pressure 1024.3mb
  • West Orca Bay - 8nm Nw Of Hinchinbrook  Is , Ak
  • West Orca Bay - 8nm Nw Of Hinchinbrook  Is , Ak

More Historic Weather Station data

Upgrade to MSW Pro to gain access to the past 30 days of data for over 8000 Wavebouys and Weather Stations around the globe.

Join Pro

Comparision Forecast

View Surf forecast
   
Wed 11/26 5:50am 1ft 9s 4s 18 22 mph 1024.3mb 46f 40f
4:50am 1ft 8s 4s 9 11 mph 1024.7mb 46f 40f
3:50am 1ft 8s 4s 11 13 mph 1024.9mb 46f 40f
2:50am 1ft 8s 5s 7 11 mph 1025.2mb 46f 40f
1:50am 1.3ft 8s 6s 7 9 mph 1025.5mb 46f 40f
12:50am 1ft 8s 6s 9 11 mph 1025.6mb 46f 41f
Tue 11/25 11:50pm 1ft 8s 6s 9 11 mph 1025.6mb 46f 41f
10:50pm 1.3ft 8s 7s 9 11 mph 1025.6mb 46f 42f
9:50pm 1.3ft 9s 7s 7 9 mph 1025.1mb 46f 42f
8:50pm 1.6ft 10s 7s 7 9 mph 1024.9mb 46f 41f
7:50pm 1.6ft 9s 7s 7 9 mph 1024.7mb 46f 42f
6:50pm 1ft 9s 7s 9 13 mph 1024.2mb 46f 42f
5:50pm 1.3ft 10s 7s 4
mph
1024mb 46f 41f
4:50pm 1.3ft 9s 7s 7
mph
1023.5mb 47f 41f
3:50pm 1.3ft 10s 6s 2 4 mph 1023mb 47f 42f
2:50pm 1.6ft 9s 7s 7 9 mph 1022.8mb 47f 42f
1:50pm 2ft 9s 6s 2 4 mph 1022.8mb 47f 43f
12:50pm 2.5ft 9s 7s 2 4 mph 1022.8mb 46f 43f
11:50am 2.5ft 8s 6s 4 7 mph 1022.7mb 46f 42f
10:50am 2.5ft 9s 6s 2
mph
1022.2mb 46f 42f
9:50am 1.6ft 10s 6s 7
mph
1021.4mb 46f 43f
8:50am 1.6ft 10s 7s 4
mph
1020.5mb 46f 43f
7:50am 2ft 9s 7s 7
mph
1019.7mb 46f 43f
6:50am 1.6ft 10s 6s 7
mph
1019mb 46f 42f
5:50am 1.6ft 9s 6s 7 9 mph 1018.2mb 47f 43f
4:50am 2ft 10s 6s 9 11 mph 1017.4mb 46f 43f
3:50am 2ft 10s 6s 9 11 mph 1016.8mb 46f 43f
2:50am 1.6ft 9s 5s 11
mph
1016.3mb 46f 42f
1:50am 1.6ft 10s 5s 9 13 mph 1015.8mb 46f 42f
12:50am 2.5ft 9s 6s 11 13 mph 1015.2mb 46f 42f
Mon 11/24 11:50pm 2ft 9s 6s 11 13 mph 1014.4mb 46f 42f
10:50pm 2ft 9s 5s 11 13 mph 1013.7mb 46f 43f
9:50pm 1.6ft 9s 6s 11 13 mph 1013mb 46f 43f
8:50pm 1.6ft 10s 7s 9 11 mph 1012.2mb 46f 43f
7:50pm 1.6ft 11s 7s 7 9 mph 1011.5mb 46f 43f
6:50pm 2ft 10s 7s 9 11 mph 1010.6mb 46f 43f
5:50pm 1.6ft 11s 6s 9 11 mph 1009.8mb 46f 43f
4:50pm 1.6ft 11s 5s 9 11 mph 1009mb 46f 42f
3:50pm 1.6ft 11s 4s 13 16 mph 1008.4mb 46f 42f
2:50pm 2.5ft 9s 4s 13 16 mph 1007.8mb 47f 42f
1:50pm 2.5ft 9s 5s 13 16 mph 1007.5mb 47f 42f
12:50pm 3ft 10s 5s 16 18 mph 1007.1mb 47f 42f
11:50am 2.5ft 10s 4s 16 18 mph 1006.8mb 47f 42f
10:50am 2.5ft 11s 4s 16 20 mph 1006.4mb 47f 42f
9:50am 2.5ft 10s 5s 16 22 mph 1005.7mb 47f 42f
8:50am 2.5ft 11s 5s 16 18 mph 1005.4mb 47f 41f
7:50am 3ft 11s 4s 16 18 mph 1005mb 47f 41f
6:50am 3ft 11s 4s 20 22 mph 1004.5mb 47f 41f
5:50am 3ft 10s 4s 20 25 mph 1004.1mb 47f 41f
4:50am 3.5ft 4s 4s 22 27 mph 1003.9mb 47f 40f
3:50am 3ft 4s 4s 22 27 mph 1003.6mb 47f 42f
2:50am 3.5ft 4s 4s 20 25 mph 1003.5mb 47f 42f
1:50am 3.5ft 10s 4s 20 27 mph 1003.3mb 47f 41f
12:50am 3ft 3s 4s 20 27 mph 1003.4mb 47f 41f
Sun 11/23 11:50pm 2.5ft 10s 4s 22 27 mph 1003mb 47f 41f
10:50pm 3ft 10s 4s 20 22 mph 1002.9mb 47f 41f
9:50pm 2.5ft 4s 4s 18 22 mph 1002.5mb 47f 41f
8:50pm 2.5ft 3s 4s 18 22 mph 1002.1mb 47f 41f
7:50pm 2.5ft 3s 4s 18 20 mph 1001.7mb 47f 41f
6:50pm 2.5ft 3s 4s 20 25 mph 1001.2mb 47f 41f
5:50pm 2.5ft 12s 4s 20 25 mph 1000.6mb 47f 42f
4:50pm 2.5ft 12s 4s 20 25 mph 1000mb 47f 41f
3:50pm 3ft 12s 4s 18 20 mph 999.6mb 47f 41f
2:50pm 2.5ft 11s 4s 16 20 mph 999.2mb 47f 41f
1:50pm 3ft 10s 5s 18 25 mph 998.9mb 47f 42f
12:50pm 3ft 9s 4s 18 22 mph 998.6mb 47f 42f
11:50am 3ft 9s 5s 20 25 mph 998.4mb 47f 42f
10:50am 2.5ft 9s 5s 20 22 mph 998mb 47f 43f
9:50am 2.5ft 9s 4s 18 22 mph 997.7mb 46f 43f
8:50am 2.5ft 10s 4s 22 27 mph 997.1mb 46f 41f
7:50am 2.5ft 3s 4s 20 25 mph 996.7mb 46f 42f
6:50am 2.5ft 3s  -  20 25 mph 996.3mb 46f 42f
5:50am 3ft 10s 4s 22 27 mph 995.7mb 46f 42f
4:50am 3ft 10s 4s 22 25 mph 995.3mb 47f 41f
3:50am 3ft 11s 4s 22 25 mph 994.8mb 47f 43f
2:50am 3.5ft 10s 4s 20 25 mph 994.5mb 47f 43f
1:50am 4ft 12s 5s 22 27 mph 993.9mb 47f 42f
12:50am 3.5ft 4s 4s 20 25 mph 993.6mb 47f 43f
Sat 11/22 11:50pm 3.5ft 10s 5s 22 27 mph 992.8mb 47f 43f
10:50pm 4.5ft 10s 5s 22 27 mph 992.2mb 47f 42f
9:50pm 3.5ft 4s 4s 22 27 mph 991.7mb 47f 42f
8:50pm 4ft 4s 4s 22 27 mph 991.1mb 47f 42f
7:50pm 4.5ft 4s 4s 25 29 mph 990.2mb 47f 42f
6:50pm 4.5ft 4s 5s 27 34 mph 989.8mb 47f 42f
5:50pm 4.5ft 5s 5s 27 34 mph 989.2mb 47f 42f
4:50pm 4.5ft 5s 5s 29 36 mph 988mb 47f 42f
3:50pm 5ft 5s 5s 27 34 mph 987.5mb 47f 42f